createdAt,value
2023-02-05T00:01:03.301Z,102898.31
2023-02-05T00:03:30.924Z,102900.38
2023-02-05T00:05:58.553Z,102885.50
2023-02-05T00:08:25.831Z,102876.75
2023-02-05T00:10:53.890Z,102859.19
2023-02-05T00:13:21.601Z,102866.69
2023-02-05T00:15:49.262Z,102880.03
2023-02-05T00:18:17.908Z,102895.97
2023-02-05T00:20:45.288Z,102883.00
2023-02-05T00:23:12.630Z,102879.72
2023-02-05T00:25:40.299Z,102891.03
2023-02-05T00:28:07.200Z,102924.88
2023-02-05T00:30:34.577Z,102919.66
2023-02-05T00:33:01.858Z,102916.91
2023-02-05T00:35:31.022Z,102928.94
2023-02-05T00:37:58.499Z,102910.03
2023-02-05T00:40:25.714Z,102889.09
2023-02-05T00:42:53.151Z,102886.03
2023-02-05T00:45:20.380Z,102895.91
2023-02-05T00:47:47.527Z,102910.13
2023-02-05T00:50:14.968Z,102902.63
2023-02-05T00:52:43.685Z,102909.28
2023-02-05T00:55:10.795Z,102896.56
2023-02-05T00:57:38.399Z,102894.31
2023-02-05T01:00:09.225Z,102917.88
2023-02-05T01:02:36.553Z,102910.91
2023-02-05T01:05:04.592Z,102904.84
2023-02-05T01:07:31.841Z,102887.91
2023-02-05T01:10:00.478Z,102894.75
2023-02-05T01:12:27.796Z,102885.53
2023-02-05T01:14:54.983Z,102891.81
2023-02-05T01:17:22.332Z,102870.72
2023-02-05T01:19:49.588Z,102854.34
2023-02-05T01:22:17.082Z,102870.00
2023-02-05T01:24:44.219Z,102886.44
2023-02-05T01:27:13.407Z,102894.91
2023-02-05T01:29:40.523Z,102900.53
2023-02-05T01:32:07.876Z,102903.66
2023-02-05T01:34:36.051Z,102911.81
2023-02-05T01:37:03.425Z,102914.94
2023-02-05T01:39:30.648Z,102924.19
2023-02-05T01:41:58.181Z,102947.19
2023-02-05T01:44:27.263Z,102951.41
2023-02-05T01:46:56.213Z,102956.28
2023-02-05T01:49:27.421Z,102963.81
2023-02-05T01:51:56.899Z,102982.56
2023-02-05T01:54:28.775Z,102990.13
2023-02-05T01:57:01.536Z,102996.50
2023-02-05T01:59:36.461Z,103006.63
2023-02-05T02:02:04.404Z,103025.28
2023-02-05T02:04:38.577Z,103030.69
2023-02-05T02:07:09.191Z,103049.66
2023-02-05T02:09:38.851Z,103052.16
2023-02-05T02:12:07.332Z,103055.28
2023-02-05T02:14:38.979Z,103060.31
2023-02-05T02:17:07.672Z,103076.22
2023-02-05T02:19:44.596Z,103069.94
2023-02-05T02:22:42.061Z,103051.91
2023-02-05T02:25:33.382Z,103052.97
2023-02-05T02:28:09.754Z,103060.16
2023-02-05T02:30:41.786Z,103059.44
2023-02-05T02:33:17.907Z,103064.84
2023-02-05T02:35:49.465Z,103083.03
2023-02-05T02:38:26.172Z,103099.19
2023-02-05T02:40:55.769Z,103094.75
2023-02-05T02:43:30.731Z,103088.81
2023-02-05T02:46:04.237Z,103083.09
2023-02-05T02:48:35.359Z,103094.03
2023-02-05T02:51:03.646Z,103098.09
2023-02-05T02:53:37.288Z,103090.06
2023-02-05T02:56:06.774Z,103089.22
2023-02-05T02:58:40.364Z,103106.63
2023-02-05T03:01:10.615Z,103111.66
2023-02-05T03:03:42.702Z,103117.63
2023-02-05T03:06:12.289Z,103126.41
2023-02-05T03:08:45.921Z,103118.94
2023-02-05T03:11:14.746Z,103117.09
2023-02-05T03:13:45.885Z,103116.13
2023-02-05T03:16:15.976Z,103111.22
2023-02-05T03:18:43.518Z,103120.13
2023-02-05T03:21:16.272Z,103126.19
2023-02-05T03:23:43.824Z,103122.81
2023-02-05T03:26:24.882Z,103129.06
2023-02-05T03:28:54.578Z,103141.97
2023-02-05T03:31:29.024Z,103142.84
2023-02-05T03:34:10.329Z,103149.78
2023-02-05T03:36:48.533Z,103166.00
2023-02-05T03:39:28.914Z,103168.53
2023-02-05T03:42:12.005Z,103162.34
2023-02-05T03:44:58.060Z,103164.97
2023-02-05T03:47:39.039Z,103170.03
2023-02-05T03:50:19.346Z,103163.25
2023-02-05T03:52:51.889Z,103153.59
2023-02-05T03:55:22.892Z,103147.03
2023-02-05T03:57:57.291Z,103152.25
2023-02-05T04:00:27.454Z,103148.34
2023-02-05T04:02:55.020Z,103157.41
2023-02-05T04:05:22.217Z,103163.63
2023-02-05T04:07:49.624Z,103159.44
2023-02-05T04:10:17.191Z,103154.28
2023-02-05T04:12:45.128Z,103145.97
2023-02-05T04:15:12.794Z,103151.28
2023-02-05T04:17:41.521Z,103143.56
2023-02-05T04:20:10.200Z,103151.06
2023-02-05T04:22:37.659Z,103157.94
2023-02-05T04:25:05.740Z,103160.84
2023-02-05T04:27:34.358Z,103165.66
2023-02-05T04:30:01.766Z,103182.03
2023-02-05T04:32:29.005Z,103190.94
2023-02-05T04:34:57.792Z,103193.81
2023-02-05T04:37:25.279Z,103202.09
2023-02-05T04:39:52.492Z,103199.78
2023-02-05T04:42:19.895Z,103211.41
2023-02-05T04:44:47.418Z,103215.28
2023-02-05T04:47:14.541Z,103218.00
2023-02-05T04:49:41.872Z,103228.72
2023-02-05T04:52:10.589Z,103241.75
2023-02-05T04:54:38.403Z,103252.72
2023-02-05T04:57:05.810Z,103257.56
2023-02-05T04:59:33.189Z,103250.78
2023-02-05T05:02:00.449Z,103251.13
2023-02-05T05:04:27.990Z,103243.91
2023-02-05T05:06:55.135Z,103248.44
2023-02-05T05:09:23.907Z,103257.41
2023-02-05T05:11:51.607Z,103260.72
2023-02-05T05:14:18.811Z,103255.16
2023-02-05T05:16:45.944Z,103250.09
2023-02-05T05:19:13.347Z,103255.66
2023-02-05T05:21:40.766Z,103260.91
2023-02-05T05:24:08.442Z,103267.00
2023-02-05T05:26:38.281Z,103262.81
2023-02-05T05:29:05.514Z,103261.97
2023-02-05T05:31:32.909Z,103255.94
2023-02-05T05:34:00.234Z,103252.72
2023-02-05T05:36:27.373Z,103255.78
2023-02-05T05:38:54.618Z,103264.44
2023-02-05T05:41:24.013Z,103277.88
2023-02-05T05:43:54.461Z,103278.81
2023-02-05T05:46:24.947Z,103282.47
2023-02-05T05:48:53.326Z,103287.88
2023-02-05T05:51:21.847Z,103290.97
2023-02-05T05:53:49.491Z,103306.75
2023-02-05T05:56:17.565Z,103300.47
2023-02-05T05:58:45.247Z,103297.53
2023-02-05T06:01:16.055Z,103293.16
2023-02-05T06:03:43.383Z,103297.44
2023-02-05T06:06:12.648Z,103303.00
2023-02-05T06:08:40.330Z,103309.69
2023-02-05T06:11:07.595Z,103316.16
2023-02-05T06:13:35.949Z,103319.22
2023-02-05T06:16:03.751Z,103325.56
2023-02-05T06:18:32.551Z,103322.22
2023-02-05T06:21:02.459Z,103342.38
2023-02-05T06:23:29.922Z,103355.72
2023-02-05T06:25:57.432Z,103355.31
2023-02-05T06:28:25.091Z,103369.19
2023-02-05T06:30:52.725Z,103364.31
2023-02-05T06:33:19.966Z,103369.19
2023-02-05T06:35:48.777Z,103368.97
2023-02-05T06:38:16.124Z,103363.06
2023-02-05T06:40:43.358Z,103369.72
2023-02-05T06:43:10.485Z,103377.28
2023-02-05T06:45:37.511Z,103379.25
2023-02-05T06:48:05.320Z,103377.91
2023-02-05T06:50:34.122Z,103376.88
2023-02-05T06:53:03.487Z,103384.81
2023-02-05T06:55:30.702Z,103379.84
2023-02-05T06:57:58.005Z,103369.06
2023-02-05T07:00:25.835Z,103368.75
2023-02-05T07:02:53.260Z,103381.06
2023-02-05T07:05:20.848Z,103385.66
2023-02-05T07:07:50.005Z,103390.50
2023-02-05T07:10:18.808Z,103380.53
2023-02-05T07:12:46.089Z,103379.81
2023-02-05T07:15:13.386Z,103377.66
2023-02-05T07:17:40.828Z,103391.06
2023-02-05T07:20:09.422Z,103405.72
2023-02-05T07:22:37.073Z,103392.03
2023-02-05T07:25:04.953Z,103384.88
2023-02-05T07:27:33.649Z,103375.31
2023-02-05T07:30:01.069Z,103383.13
2023-02-05T07:32:28.183Z,103401.13
2023-02-05T07:34:55.421Z,103399.97
2023-02-05T07:37:22.791Z,103399.97
2023-02-05T07:39:50.274Z,103405.72
2023-02-05T07:42:17.894Z,103400.31
2023-02-05T07:44:46.882Z,103401.94
2023-02-05T07:47:14.475Z,103411.84
2023-02-05T07:49:41.660Z,103412.00
2023-02-05T07:52:09.077Z,103417.34
2023-02-05T07:54:36.377Z,103434.78
2023-02-05T07:57:05.346Z,103442.31
2023-02-05T07:59:34.292Z,103440.53
2023-02-05T08:02:03.561Z,103437.50
2023-02-05T08:04:31.309Z,103442.88
2023-02-05T08:06:58.939Z,103448.66
2023-02-05T08:09:26.235Z,103452.81
2023-02-05T08:11:53.456Z,103451.94
2023-02-05T08:14:20.691Z,103448.78
2023-02-05T08:16:47.910Z,103435.56
2023-02-05T08:19:17.549Z,103450.03
2023-02-05T08:21:45.110Z,103457.69
2023-02-05T08:24:12.383Z,103458.72
2023-02-05T08:26:39.677Z,103457.91
2023-02-05T08:29:07.645Z,103459.38
2023-02-05T08:31:35.687Z,103461.31
2023-02-05T08:34:03.613Z,103454.88
2023-02-05T08:36:32.536Z,103448.22
2023-02-05T08:39:00.119Z,103456.44
2023-02-05T08:41:27.569Z,103466.81
2023-02-05T08:43:55.232Z,103457.66
2023-02-05T08:46:23.614Z,103443.84
2023-02-05T08:48:51.010Z,103438.25
2023-02-05T08:51:20.075Z,103434.03
2023-02-05T08:53:48.798Z,103439.38
2023-02-05T08:56:17.177Z,103439.31
2023-02-05T08:58:45.627Z,103445.25
2023-02-05T09:01:14.850Z,103441.59
2023-02-05T09:03:42.029Z,103458.88
2023-02-05T09:06:11.395Z,103453.47
2023-02-05T09:08:39.107Z,103451.53
2023-02-05T09:11:08.102Z,103444.06
2023-02-05T09:13:36.297Z,103436.38
2023-02-05T09:16:03.772Z,103419.78
2023-02-05T09:18:30.976Z,103424.47
2023-02-05T09:20:58.317Z,103424.47
2023-02-05T09:23:25.862Z,103426.50
2023-02-05T09:25:53.213Z,103421.75
2023-02-05T09:28:22.264Z,103409.97
2023-02-05T09:30:49.480Z,103404.06
2023-02-05T09:33:16.722Z,103410.34
2023-02-05T09:35:44.583Z,103407.63
2023-02-05T09:38:14.475Z,103389.53
2023-02-05T09:40:55.966Z,103369.00
2023-02-05T09:43:37.337Z,103366.69
2023-02-05T09:46:12.619Z,103381.88
2023-02-05T09:48:52.903Z,103400.00
2023-02-05T09:51:34.739Z,103405.72
2023-02-05T09:54:12.221Z,103414.78
2023-02-05T09:56:42.281Z,103403.34
2023-02-05T09:59:16.288Z,103399.69
2023-02-05T10:01:49.172Z,103411.28
2023-02-05T10:04:16.782Z,103413.44
2023-02-05T10:07:13.902Z,103405.25
2023-02-05T10:10:06.118Z,103400.63
2023-02-05T10:13:00.085Z,103399.50
2023-02-05T10:15:44.479Z,103403.50
2023-02-05T10:18:23.065Z,103411.41
2023-02-05T10:21:01.540Z,103427.09
2023-02-05T10:24:02.058Z,103431.56
2023-02-05T10:26:36.065Z,103428.06
2023-02-05T10:29:16.764Z,103431.03
2023-02-05T10:31:55.527Z,103426.44
2023-02-05T10:34:34.021Z,103434.56
2023-02-05T10:39:33.153Z,103444.72
2023-02-05T10:42:06.619Z,103440.81
2023-02-05T10:44:38.849Z,103438.47
2023-02-05T10:47:14.290Z,103429.97
2023-02-05T10:49:48.261Z,103432.41
2023-02-05T10:52:16.988Z,103433.66
2023-02-05T10:54:46.751Z,103417.81
2023-02-05T10:57:17.048Z,103414.34
2023-02-05T10:59:52.757Z,103416.09
2023-02-05T11:02:22.779Z,103422.78
2023-02-05T11:04:56.472Z,103424.06
2023-02-05T11:07:29.210Z,103417.59
2023-02-05T11:09:58.607Z,103415.22
2023-02-05T11:12:32.702Z,103410.88
2023-02-05T11:15:02.882Z,103417.44
2023-02-05T11:17:34.977Z,103415.09
2023-02-05T11:20:07.013Z,103419.06
2023-02-05T11:22:36.913Z,103438.16
2023-02-05T11:25:15.516Z,103451.75
2023-02-05T11:27:50.623Z,103452.69
2023-02-05T11:30:52.313Z,103446.47
2023-02-05T11:33:32.204Z,103454.47
2023-02-05T11:36:02.373Z,103458.69
2023-02-05T11:38:35.010Z,103458.22
2023-02-05T11:41:07.350Z,103462.50
2023-02-05T11:43:36.858Z,103468.66
2023-02-05T11:46:08.022Z,103467.78
2023-02-05T11:48:56.687Z,103466.22
2023-02-05T11:51:44.061Z,103453.56
2023-02-05T11:54:20.326Z,103462.16
2023-02-05T11:57:04.953Z,103466.00
2023-02-05T11:59:35.440Z,103467.66
2023-02-05T12:02:35.966Z,103473.22
2023-02-05T12:05:19.226Z,103477.50
2023-02-05T12:07:50.939Z,103484.72
2023-02-05T12:10:21.935Z,103478.19
2023-02-05T12:13:02.576Z,103474.78
2023-02-05T12:15:37.310Z,103482.97
2023-02-05T12:18:19.414Z,103478.13
2023-02-05T12:20:58.642Z,103462.09
2023-02-05T12:23:38.058Z,103457.38
2023-02-05T12:26:25.667Z,103448.56
2023-02-05T12:29:07.935Z,103456.59
2023-02-05T12:31:50.954Z,103463.50
2023-02-05T12:34:28.276Z,103461.63
2023-02-05T12:37:18.839Z,103454.75
2023-02-05T12:39:47.930Z,103452.72
2023-02-05T12:42:29.616Z,103452.78
2023-02-05T12:45:15.941Z,103456.91
2023-02-05T12:47:56.962Z,103461.88
2023-02-05T12:50:53.572Z,103458.16
2023-02-05T12:53:40.613Z,103454.63
2023-02-05T12:56:26.053Z,103453.59
2023-02-05T12:58:58.792Z,103439.56
2023-02-05T13:01:36.196Z,103441.25
2023-02-05T13:04:05.084Z,103430.72
2023-02-05T13:06:37.884Z,103430.69
2023-02-05T13:09:14.402Z,103446.34
2023-02-05T13:11:48.034Z,103427.84
2023-02-05T13:14:21.354Z,103415.56
2023-02-05T13:16:52.801Z,103417.06
2023-02-05T13:19:27.092Z,103414.72
2023-02-05T13:21:56.600Z,103411.47
2023-02-05T13:24:29.957Z,103404.44
2023-02-05T13:26:58.153Z,103398.22
2023-02-05T13:29:30.234Z,103391.28
2023-02-05T13:32:14.714Z,103388.34
2023-02-05T13:34:43.262Z,103369.69
2023-02-05T13:37:27.244Z,103364.41
2023-02-05T13:40:22.065Z,103353.59
2023-02-05T13:43:18.017Z,103350.28
2023-02-05T13:46:19.057Z,103358.91
2023-02-05T13:49:07.416Z,103331.81
2023-02-05T13:52:04.377Z,103342.97
2023-02-05T13:55:00.581Z,103330.41
2023-02-05T13:58:05.791Z,103322.03
2023-02-05T14:00:34.476Z,103331.66
2023-02-05T14:03:03.154Z,103330.88
2023-02-05T14:05:32.929Z,103324.81
2023-02-05T14:08:00.869Z,103334.34
2023-02-05T14:10:30.874Z,103322.66
2023-02-05T14:13:18.132Z,103326.56
2023-02-05T14:15:45.425Z,103337.25
2023-02-05T14:18:34.029Z,103331.84
2023-02-05T14:21:01.314Z,103320.22
2023-02-05T14:23:57.308Z,103321.50
2023-02-05T14:26:46.426Z,103324.16
2023-02-05T14:29:43.196Z,103316.94
2023-02-05T14:32:11.983Z,103316.16
2023-02-05T14:34:48.452Z,103305.78
2023-02-05T14:37:31.227Z,103311.34
2023-02-05T14:40:00.755Z,103324.69
2023-02-05T14:42:29.218Z,103315.16
2023-02-05T14:45:00.705Z,103318.75
2023-02-05T14:47:30.817Z,103322.22
2023-02-05T14:50:06.031Z,103300.13
2023-02-05T14:52:37.130Z,103306.84
2023-02-05T14:55:08.657Z,103300.25
2023-02-05T14:57:45.751Z,103302.00
2023-02-05T15:00:27.565Z,103301.50
2023-02-05T15:03:26.697Z,103281.69
2023-02-05T15:05:59.525Z,103284.66
2023-02-05T15:08:42.769Z,103279.00
2023-02-05T15:11:17.245Z,103293.09
2023-02-05T15:14:25.974Z,103290.03
2023-02-05T15:17:26.525Z,103276.16
2023-02-05T15:20:02.748Z,103277.97
2023-02-05T15:22:35.959Z,103279.31
2023-02-05T15:25:09.199Z,103286.72
2023-02-05T15:27:43.163Z,103290.06
2023-02-05T15:30:18.305Z,103281.44
2023-02-05T15:32:52.106Z,103271.94
2023-02-05T15:35:24.816Z,103275.69
2023-02-05T15:37:55.393Z,103281.81
2023-02-05T15:40:25.534Z,103278.56
2023-02-05T15:42:57.864Z,103270.97
2023-02-05T15:45:27.563Z,103277.72
2023-02-05T15:48:00.497Z,103288.59
2023-02-05T15:50:30.659Z,103276.75
2023-02-05T15:52:58.756Z,103273.72
2023-02-05T15:55:26.914Z,103277.53
2023-02-05T15:58:00.136Z,103266.25
2023-02-05T16:00:30.789Z,103263.31
2023-02-05T16:03:00.392Z,103256.38
2023-02-05T16:05:32.412Z,103257.25
2023-02-05T16:07:59.628Z,103253.53
2023-02-05T16:10:28.527Z,103242.63
2023-02-05T16:13:00.468Z,103232.53
2023-02-05T16:15:33.182Z,103240.94
2023-02-05T16:18:03.951Z,103230.50
2023-02-05T16:20:37.389Z,103235.25
2023-02-05T16:23:09.204Z,103238.50
2023-02-05T16:25:44.268Z,103251.41
2023-02-05T16:28:19.379Z,103249.94
2023-02-05T16:30:48.605Z,103250.97
2023-02-05T16:33:27.573Z,103261.66
2023-02-05T16:36:00.108Z,103271.75
2023-02-05T16:38:27.859Z,103276.19
2023-02-05T16:40:57.440Z,103275.63
2023-02-05T16:43:31.666Z,103270.75
2023-02-05T16:46:23.765Z,103267.78
2023-02-05T16:48:53.773Z,103269.25
2023-02-05T16:51:53.824Z,103263.22
2023-02-05T16:54:30.915Z,103261.25
2023-02-05T16:57:07.487Z,103270.19
2023-02-05T16:59:39.872Z,103272.41
2023-02-05T17:02:23.207Z,103277.28
2023-02-05T17:04:53.457Z,103290.03
2023-02-05T17:07:23.455Z,103277.13
2023-02-05T17:09:51.648Z,103288.91
2023-02-05T17:12:41.161Z,103286.69
2023-02-05T17:15:37.065Z,103285.06
2023-02-05T17:18:21.032Z,103293.25
2023-02-05T17:20:48.558Z,103296.84
2023-02-05T17:23:18.024Z,103298.69
2023-02-05T17:25:52.697Z,103299.69
2023-02-05T17:28:22.302Z,103297.53
2023-02-05T17:30:49.998Z,103294.03
2023-02-05T17:33:19.846Z,103295.47
2023-02-05T17:35:47.323Z,103286.06
2023-02-05T17:38:17.525Z,103297.28
2023-02-05T17:40:45.393Z,103296.75
2023-02-05T17:43:12.770Z,103299.06
2023-02-05T17:45:42.182Z,103294.88
2023-02-05T17:48:09.667Z,103289.53
2023-02-05T17:50:37.532Z,103282.81
2023-02-05T17:53:05.158Z,103289.78
2023-02-05T17:55:33.966Z,103296.09
2023-02-05T17:58:01.160Z,103295.94
2023-02-05T18:00:29.604Z,103291.69
2023-02-05T18:02:57.305Z,103287.56
2023-02-05T18:05:24.706Z,103286.13
2023-02-05T18:07:54.453Z,103287.69
2023-02-05T18:10:24.690Z,103288.47
2023-02-05T18:12:54.294Z,103287.94
2023-02-05T18:15:21.429Z,103289.31
2023-02-05T18:17:49.059Z,103285.22
2023-02-05T18:20:17.720Z,103293.06
2023-02-05T18:22:45.597Z,103290.59
2023-02-05T18:25:13.530Z,103286.22
2023-02-05T18:27:40.884Z,103283.41
2023-02-05T18:30:11.316Z,103278.28
2023-02-05T18:32:39.017Z,103274.25
2023-02-05T18:35:07.209Z,103285.00
2023-02-05T18:37:36.974Z,103272.09
2023-02-05T18:40:05.354Z,103274.59
2023-02-05T18:42:33.922Z,103275.22
2023-02-05T18:45:01.580Z,103279.38
2023-02-05T18:47:30.438Z,103285.78
2023-02-05T18:49:57.608Z,103300.69
2023-02-05T18:52:24.975Z,103295.66
2023-02-05T18:54:52.377Z,103280.44
2023-02-05T18:57:19.774Z,103290.16
2023-02-05T18:59:47.055Z,103281.81
2023-02-05T19:02:14.434Z,103278.13
2023-02-05T19:04:43.719Z,103280.84
2023-02-05T19:07:10.960Z,103283.56
2023-02-05T19:09:38.304Z,103291.03
2023-02-05T19:12:06.545Z,103282.19
2023-02-05T19:14:33.940Z,103284.66
2023-02-05T19:17:01.324Z,103280.06
2023-02-05T19:19:28.588Z,103269.50
2023-02-05T19:21:58.224Z,103255.06
2023-02-05T19:24:26.143Z,103246.03
2023-02-05T19:26:55.856Z,103244.09
2023-02-05T19:29:23.450Z,103240.41
2023-02-05T19:31:50.761Z,103230.00
2023-02-05T19:34:17.989Z,103234.75
2023-02-05T19:36:46.306Z,103239.84
2023-02-05T19:39:15.469Z,103239.53
2023-02-05T19:41:42.945Z,103237.50
2023-02-05T19:44:10.697Z,103242.41
2023-02-05T19:46:39.930Z,103238.03
2023-02-05T19:49:11.730Z,103224.13
2023-02-05T19:51:39.030Z,103215.19
2023-02-05T19:54:06.493Z,103211.91
2023-02-05T19:56:35.470Z,103213.97
2023-02-05T19:59:02.738Z,103201.72
2023-02-05T20:01:32.422Z,103196.81
2023-02-05T20:04:01.788Z,103202.59
2023-02-05T20:06:29.951Z,103209.75
2023-02-05T20:08:57.438Z,103212.38
2023-02-05T20:11:24.641Z,103216.94
2023-02-05T20:13:53.313Z,103219.75
2023-02-05T20:16:22.744Z,103217.03
2023-02-05T20:18:54.238Z,103209.97
2023-02-05T20:21:21.882Z,103209.31
2023-02-05T20:23:50.446Z,103201.38
2023-02-05T20:26:17.799Z,103196.47
2023-02-05T20:28:47.071Z,103196.75
2023-02-05T20:31:16.089Z,103195.50
2023-02-05T20:33:43.369Z,103193.13
2023-02-05T20:36:12.429Z,103197.34
2023-02-05T20:38:40.450Z,103209.78
2023-02-05T20:41:12.199Z,103200.94
2023-02-05T20:43:39.550Z,103201.44
2023-02-05T20:46:08.094Z,103198.72
2023-02-05T20:48:37.172Z,103195.88
2023-02-05T20:51:09.469Z,103197.34
2023-02-05T20:53:36.787Z,103190.16
2023-02-05T20:56:06.378Z,103187.69
2023-02-05T20:58:34.992Z,103177.13
2023-02-05T21:01:07.124Z,103170.84
2023-02-05T21:03:37.565Z,103180.63
2023-02-05T21:06:05.704Z,103170.75
2023-02-05T21:08:33.382Z,103178.09
2023-02-05T21:11:01.360Z,103180.06
2023-02-05T21:13:28.598Z,103174.63
2023-02-05T21:15:57.249Z,103167.66
2023-02-05T21:18:26.715Z,103157.97
2023-02-05T21:20:55.948Z,103150.03
2023-02-05T21:23:23.343Z,103144.41
2023-02-05T21:25:51.079Z,103145.38
2023-02-05T21:28:19.040Z,103141.72
2023-02-05T21:30:46.403Z,103140.75
2023-02-05T21:33:14.133Z,103138.50
2023-02-05T21:35:41.353Z,103140.94
2023-02-05T21:38:10.309Z,103147.75
2023-02-05T21:40:37.988Z,103152.50
2023-02-05T21:43:05.175Z,103151.16
2023-02-05T21:45:32.488Z,103150.31
2023-02-05T21:47:59.901Z,103149.47
2023-02-05T21:50:27.324Z,103158.97
2023-02-05T21:52:55.176Z,103167.00
2023-02-05T21:55:24.700Z,103172.84
2023-02-05T21:57:52.162Z,103174.47
2023-02-05T22:00:19.669Z,103177.84
2023-02-05T22:02:47.156Z,103179.41
2023-02-05T22:05:14.674Z,103187.00
2023-02-05T22:07:42.079Z,103198.63
2023-02-05T22:10:09.896Z,103201.28
2023-02-05T22:12:38.852Z,103195.63
2023-02-05T22:15:06.497Z,103197.31
2023-02-05T22:17:34.289Z,103200.81
2023-02-05T22:20:01.907Z,103202.75
2023-02-05T22:22:29.103Z,103199.25
2023-02-05T22:24:57.530Z,103195.97
2023-02-05T22:27:24.877Z,103203.59
2023-02-05T22:29:53.696Z,103206.53
2023-02-05T22:32:21.064Z,103199.00
2023-02-05T22:34:48.549Z,103195.25
2023-02-05T22:37:15.671Z,103198.59
2023-02-05T22:39:43.257Z,103198.22
2023-02-05T22:42:11.296Z,103193.41
2023-02-05T22:44:38.531Z,103201.44
2023-02-05T22:47:07.426Z,103201.53
2023-02-05T22:49:34.602Z,103198.28
2023-02-05T22:52:01.803Z,103197.72
2023-02-05T22:54:30.448Z,103195.38
2023-02-05T22:56:57.703Z,103198.84
2023-02-05T22:59:25.618Z,103200.31
2023-02-05T23:01:53.106Z,103197.72
2023-02-05T23:04:22.269Z,103201.09
2023-02-05T23:06:49.458Z,103197.06
2023-02-05T23:09:19.521Z,103196.63
2023-02-05T23:11:47.038Z,103197.03
2023-02-05T23:14:16.285Z,103190.75
2023-02-05T23:16:46.163Z,103187.31
2023-02-05T23:19:18.296Z,103180.16
2023-02-05T23:21:48.097Z,103180.63
2023-02-05T23:24:16.238Z,103185.59
2023-02-05T23:26:45.482Z,103182.97
2023-02-05T23:29:15.693Z,103175.06
2023-02-05T23:31:43.572Z,103173.47
2023-02-05T23:34:11.107Z,103164.59
2023-02-05T23:36:38.864Z,103162.38
2023-02-05T23:39:07.609Z,103160.59
2023-02-05T23:41:35.010Z,103167.13
2023-02-05T23:44:03.888Z,103156.97
2023-02-05T23:46:31.765Z,103149.16
2023-02-05T23:48:59.199Z,103146.78
2023-02-05T23:51:26.548Z,103150.69
2023-02-05T23:53:54.153Z,103150.69
2023-02-05T23:56:22.852Z,103145.22
2023-02-05T23:58:50.360Z,103146.00
